sensor_id;sensor_type;location;lat;lon;timestamp;P1;durP1;ratioP1;P2;durP2;ratioP2
37379;SDS011;23252;-33.992;18.480;2023-07-31T00:02:02;39.70;;;7.32;;
37379;SDS011;23252;-33.992;18.480;2023-07-31T00:04:28;40.50;;;7.40;;
37379;SDS011;23252;-33.992;18.480;2023-07-31T00:06:55;39.55;;;6.65;;
37379;SDS011;23252;-33.992;18.480;2023-07-31T00:09:21;38.22;;;7.13;;
37379;SDS011;23252;-33.992;18.480;2023-07-31T00:11:48;43.33;;;6.60;;
37379;SDS011;23252;-33.992;18.480;2023-07-31T00:14:14;46.83;;;8.07;;
37379;SDS011;23252;-33.992;18.480;2023-07-31T00:16:41;45.92;;;6.55;;
37379;SDS011;23252;-33.992;18.480;2023-07-31T00:19:07;37.55;;;6.20;;
37379;SDS011;23252;-33.992;18.480;2023-07-31T00:21:34;42.00;;;6.93;;
37379;SDS011;23252;-33.992;18.480;2023-07-31T00:24:00;38.03;;;6.43;;
37379;SDS011;23252;-33.992;18.480;2023-07-31T00:26:27;37.13;;;6.13;;
37379;SDS011;23252;-33.992;18.480;2023-07-31T00:28:53;37.80;;;6.03;;
37379;SDS011;23252;-33.992;18.480;2023-07-31T00:31:20;43.23;;;7.73;;
37379;SDS011;23252;-33.992;18.480;2023-07-31T00:33:46;35.97;;;6.30;;
37379;SDS011;23252;-33.992;18.480;2023-07-31T00:36:13;43.08;;;8.43;;
37379;SDS011;23252;-33.992;18.480;2023-07-31T00:38:39;36.70;;;7.63;;
37379;SDS011;23252;-33.992;18.480;2023-07-31T00:41:06;48.92;;;7.90;;
37379;SDS011;23252;-33.992;18.480;2023-07-31T00:43:32;40.80;;;7.07;;
37379;SDS011;23252;-33.992;18.480;2023-07-31T00:45:59;32.50;;;5.20;;
37379;SDS011;23252;-33.992;18.480;2023-07-31T00:48:25;31.13;;;5.53;;
37379;SDS011;23252;-33.992;18.480;2023-07-31T00:50:52;39.33;;;5.55;;
37379;SDS011;23252;-33.992;18.480;2023-07-31T00:53:19;36.60;;;6.13;;
37379;SDS011;23252;-33.992;18.480;2023-07-31T00:55:45;41.72;;;6.95;;
37379;SDS011;23252;-33.992;18.480;2023-07-31T00:58:12;42.20;;;5.82;;
37379;SDS011;23252;-33.992;18.480;2023-07-31T01:00:38;38.50;;;6.95;;
37379;SDS011;23252;-33.992;18.480;2023-07-31T01:03:05;35.55;;;6.05;;
37379;SDS011;23252;-33.992;18.480;2023-07-31T01:11:17;41.70;;;5.93;;
37379;SDS011;23252;-33.992;18.480;2023-07-31T01:13:56;33.78;;;5.38;;
37379;SDS011;23252;-33.992;18.480;2023-07-31T01:18:50;29.85;;;4.65;;
37379;SDS011;23252;-33.992;18.480;2023-07-31T01:26:44;22.45;;;3.58;;
37379;SDS011;23252;-33.992;18.480;2023-07-31T01:29:20;28.35;;;4.38;;
37379;SDS011;23252;-33.992;18.480;2023-07-31T01:32:11;29.42;;;4.65;;
37379;SDS011;23252;-33.992;18.480;2023-07-31T01:34:39;29.88;;;4.78;;
37379;SDS011;23252;-33.992;18.480;2023-07-31T01:37:06;31.30;;;4.05;;
37379;SDS011;23252;-33.992;18.480;2023-07-31T01:39:33;26.77;;;4.95;;
37379;SDS011;23252;-33.992;18.480;2023-07-31T01:42:00;30.48;;;4.40;;
37379;SDS011;23252;-33.992;18.480;2023-07-31T01:44:26;27.20;;;4.00;;
37379;SDS011;23252;-33.992;18.480;2023-07-31T01:46:54;22.30;;;3.70;;
37379;SDS011;23252;-33.992;18.480;2023-07-31T01:49:20;19.85;;;4.30;;
37379;SDS011;23252;-33.992;18.480;2023-07-31T01:51:46;41.33;;;6.00;;
37379;SDS011;23252;-33.992;18.480;2023-07-31T01:54:13;21.90;;;3.88;;
37379;SDS011;23252;-33.992;18.480;2023-07-31T01:56:39;21.60;;;4.05;;
37379;SDS011;23252;-33.992;18.480;2023-07-31T01:59:06;20.13;;;4.05;;
37379;SDS011;23252;-33.992;18.480;2023-07-31T02:01:32;34.35;;;5.63;;
37379;SDS011;23252;-33.992;18.480;2023-07-31T02:03:59;33.75;;;5.00;;
37379;SDS011;23252;-33.992;18.480;2023-07-31T02:06:26;24.70;;;4.47;;
37379;SDS011;23252;-33.992;18.480;2023-07-31T02:08:53;26.45;;;3.80;;
37379;SDS011;23252;-33.992;18.480;2023-07-31T02:11:20;20.85;;;3.97;;
37379;SDS011;23252;-33.992;18.480;2023-07-31T02:13:46;28.10;;;4.82;;
37379;SDS011;23252;-33.992;18.480;2023-07-31T02:16:13;24.17;;;4.53;;
37379;SDS011;23252;-33.992;18.480;2023-07-31T02:18:39;24.02;;;4.32;;
37379;SDS011;23252;-33.992;18.480;2023-07-31T02:21:05;25.77;;;3.40;;
37379;SDS011;23252;-33.992;18.480;2023-07-31T02:23:32;23.58;;;4.05;;
37379;SDS011;23252;-33.992;18.480;2023-07-31T02:25:58;29.77;;;4.40;;
37379;SDS011;23252;-33.992;18.480;2023-07-31T02:28:25;27.67;;;4.60;;
37379;SDS011;23252;-33.992;18.480;2023-07-31T02:30:51;27.65;;;4.70;;
37379;SDS011;23252;-33.992;18.480;2023-07-31T02:33:18;27.33;;;3.83;;
37379;SDS011;23252;-33.992;18.480;2023-07-31T02:35:44;30.60;;;4.93;;
37379;SDS011;23252;-33.992;18.480;2023-07-31T02:38:11;25.88;;;4.28;;
37379;SDS011;23252;-33.992;18.480;2023-07-31T02:40:38;26.63;;;5.30;;
37379;SDS011;23252;-33.992;18.480;2023-07-31T02:43:06;21.65;;;4.10;;
37379;SDS011;23252;-33.992;18.480;2023-07-31T02:48:00;22.13;;;4.50;;
37379;SDS011;23252;-33.992;18.480;2023-07-31T02:50:27;33.97;;;4.90;;
37379;SDS011;23252;-33.992;18.480;2023-07-31T02:52:54;30.98;;;5.43;;
37379;SDS011;23252;-33.992;18.480;2023-07-31T02:55:20;26.33;;;4.70;;
37379;SDS011;23252;-33.992;18.480;2023-07-31T02:57:46;26.92;;;4.80;;
37379;SDS011;23252;-33.992;18.480;2023-07-31T03:00:13;27.15;;;5.38;;
37379;SDS011;23252;-33.992;18.480;2023-07-31T03:02:39;21.67;;;4.55;;
37379;SDS011;23252;-33.992;18.480;2023-07-31T03:05:06;23.35;;;4.43;;
37379;SDS011;23252;-33.992;18.480;2023-07-31T03:07:33;25.15;;;5.07;;
37379;SDS011;23252;-33.992;18.480;2023-07-31T03:09:59;28.15;;;4.55;;
37379;SDS011;23252;-33.992;18.480;2023-07-31T03:12:26;23.87;;;4.20;;
37379;SDS011;23252;-33.992;18.480;2023-07-31T03:14:53;23.58;;;3.85;;
37379;SDS011;23252;-33.992;18.480;2023-07-31T03:17:19;22.55;;;3.63;;
37379;SDS011;23252;-33.992;18.480;2023-07-31T03:19:46;25.38;;;4.53;;
37379;SDS011;23252;-33.992;18.480;2023-07-31T03:22:12;20.90;;;4.63;;
37379;SDS011;23252;-33.992;18.480;2023-07-31T03:24:39;19.70;;;4.00;;
37379;SDS011;23252;-33.992;18.480;2023-07-31T03:27:05;20.55;;;3.53;;
37379;SDS011;23252;-33.992;18.480;2023-07-31T03:29:32;23.83;;;4.03;;
37379;SDS011;23252;-33.992;18.480;2023-07-31T03:31:58;26.27;;;3.50;;
37379;SDS011;23252;-33.992;18.480;2023-07-31T03:34:26;22.80;;;4.00;;
37379;SDS011;23252;-33.992;18.480;2023-07-31T03:36:52;19.33;;;3.07;;
37379;SDS011;23252;-33.992;18.480;2023-07-31T03:39:19;18.08;;;3.25;;
37379;SDS011;23252;-33.992;18.480;2023-07-31T03:41:46;25.10;;;4.43;;
37379;SDS011;23252;-33.992;18.480;2023-07-31T03:44:12;21.08;;;3.40;;
37379;SDS011;23252;-33.992;18.480;2023-07-31T03:46:39;26.05;;;3.10;;
37379;SDS011;23252;-33.992;18.480;2023-07-31T03:49:05;27.90;;;4.25;;
37379;SDS011;23252;-33.992;18.480;2023-07-31T03:51:32;23.10;;;3.57;;
37379;SDS011;23252;-33.992;18.480;2023-07-31T03:53:58;31.17;;;4.65;;
37379;SDS011;23252;-33.992;18.480;2023-07-31T03:56:25;21.97;;;4.10;;
37379;SDS011;23252;-33.992;18.480;2023-07-31T03:58:51;28.80;;;3.95;;
37379;SDS011;23252;-33.992;18.480;2023-07-31T04:01:19;23.70;;;3.93;;
37379;SDS011;23252;-33.992;18.480;2023-07-31T04:03:45;22.17;;;3.35;;
37379;SDS011;23252;-33.992;18.480;2023-07-31T04:06:12;25.48;;;3.45;;
37379;SDS011;23252;-33.992;18.480;2023-07-31T04:08:38;21.27;;;3.28;;
37379;SDS011;23252;-33.992;18.480;2023-07-31T04:11:07;22.52;;;3.47;;
37379;SDS011;23252;-33.992;18.480;2023-07-31T04:13:34;24.75;;;4.25;;
37379;SDS011;23252;-33.992;18.480;2023-07-31T04:16:00;27.80;;;3.90;;
37379;SDS011;23252;-33.992;18.480;2023-07-31T04:18:27;21.75;;;3.85;;
37379;SDS011;23252;-33.992;18.480;2023-07-31T04:20:56;22.52;;;3.55;;
37379;SDS011;23252;-33.992;18.480;2023-07-31T04:23:27;18.80;;;3.53;;
37379;SDS011;23252;-33.992;18.480;2023-07-31T04:25:54;26.75;;;3.85;;
37379;SDS011;23252;-33.992;18.480;2023-07-31T04:28:20;23.00;;;3.57;;
37379;SDS011;23252;-33.992;18.480;2023-07-31T04:30:47;21.88;;;3.63;;
37379;SDS011;23252;-33.992;18.480;2023-07-31T04:33:13;21.85;;;3.90;;
37379;SDS011;23252;-33.992;18.480;2023-07-31T04:35:40;22.67;;;3.42;;
37379;SDS011;23252;-33.992;18.480;2023-07-31T04:38:06;26.03;;;3.33;;
37379;SDS011;23252;-33.992;18.480;2023-07-31T04:40:33;25.63;;;3.88;;
37379;SDS011;23252;-33.992;18.480;2023-07-31T04:42:59;17.87;;;3.60;;
37379;SDS011;23252;-33.992;18.480;2023-07-31T04:45:26;30.07;;;4.10;;
37379;SDS011;23252;-33.992;18.480;2023-07-31T04:47:52;24.45;;;3.50;;
37379;SDS011;23252;-33.992;18.480;2023-07-31T04:50:19;21.08;;;2.97;;
37379;SDS011;23252;-33.992;18.480;2023-07-31T04:52:45;18.35;;;3.10;;
37379;SDS011;23252;-33.992;18.480;2023-07-31T04:55:12;15.60;;;3.33;;
37379;SDS011;23252;-33.992;18.480;2023-07-31T04:57:38;23.85;;;3.55;;
37379;SDS011;23252;-33.992;18.480;2023-07-31T05:00:05;29.05;;;4.32;;
37379;SDS011;23252;-33.992;18.480;2023-07-31T05:02:32;23.88;;;3.05;;
37379;SDS011;23252;-33.992;18.480;2023-07-31T05:04:58;27.83;;;3.75;;
37379;SDS011;23252;-33.992;18.480;2023-07-31T05:07:25;17.23;;;3.13;;
37379;SDS011;23252;-33.992;18.480;2023-07-31T05:09:51;26.55;;;3.85;;
37379;SDS011;23252;-33.992;18.480;2023-07-31T05:12:18;19.02;;;3.90;;
37379;SDS011;23252;-33.992;18.480;2023-07-31T05:14:44;26.30;;;4.53;;
37379;SDS011;23252;-33.992;18.480;2023-07-31T05:17:11;22.75;;;3.95;;
37379;SDS011;23252;-33.992;18.480;2023-07-31T05:19:37;24.92;;;3.85;;
37379;SDS011;23252;-33.992;18.480;2023-07-31T05:22:04;30.98;;;4.35;;
37379;SDS011;23252;-33.992;18.480;2023-07-31T05:24:30;24.13;;;3.50;;
37379;SDS011;23252;-33.992;18.480;2023-07-31T05:26:57;25.98;;;4.05;;
37379;SDS011;23252;-33.992;18.480;2023-07-31T05:29:23;22.80;;;3.80;;
37379;SDS011;23252;-33.992;18.480;2023-07-31T05:31:50;28.20;;;3.65;;
37379;SDS011;23252;-33.992;18.480;2023-07-31T05:34:17;16.77;;;3.05;;
37379;SDS011;23252;-33.992;18.480;2023-07-31T05:36:43;27.80;;;4.38;;
37379;SDS011;23252;-33.992;18.480;2023-07-31T05:39:10;23.75;;;3.88;;
37379;SDS011;23252;-33.992;18.480;2023-07-31T05:41:36;23.15;;;4.80;;
37379;SDS011;23252;-33.992;18.480;2023-07-31T05:44:03;30.33;;;5.22;;
37379;SDS011;23252;-33.992;18.480;2023-07-31T05:46:29;21.63;;;3.70;;
37379;SDS011;23252;-33.992;18.480;2023-07-31T05:48:56;26.95;;;4.07;;
37379;SDS011;23252;-33.992;18.480;2023-07-31T05:51:23;20.05;;;3.00;;
37379;SDS011;23252;-33.992;18.480;2023-07-31T05:53:49;25.08;;;3.95;;
37379;SDS011;23252;-33.992;18.480;2023-07-31T05:56:15;19.42;;;3.20;;
37379;SDS011;23252;-33.992;18.480;2023-07-31T05:58:42;26.17;;;3.75;;
37379;SDS011;23252;-33.992;18.480;2023-07-31T06:01:08;18.63;;;3.35;;
37379;SDS011;23252;-33.992;18.480;2023-07-31T06:03:35;15.13;;;3.50;;
37379;SDS011;23252;-33.992;18.480;2023-07-31T06:06:01;15.48;;;3.10;;
37379;SDS011;23252;-33.992;18.480;2023-07-31T06:08:28;22.30;;;4.63;;
37379;SDS011;23252;-33.992;18.480;2023-07-31T06:10:54;17.33;;;2.72;;
37379;SDS011;23252;-33.992;18.480;2023-07-31T06:13:21;16.67;;;3.03;;
37379;SDS011;23252;-33.992;18.480;2023-07-31T06:15:47;15.07;;;2.88;;
37379;SDS011;23252;-33.992;18.480;2023-07-31T06:18:14;20.35;;;3.90;;
37379;SDS011;23252;-33.992;18.480;2023-07-31T06:20:40;20.17;;;3.60;;
37379;SDS011;23252;-33.992;18.480;2023-07-31T06:23:07;20.90;;;3.90;;
37379;SDS011;23252;-33.992;18.480;2023-07-31T06:25:34;22.38;;;4.43;;
37379;SDS011;23252;-33.992;18.480;2023-07-31T06:28:00;15.35;;;3.55;;
37379;SDS011;23252;-33.992;18.480;2023-07-31T06:30:27;14.98;;;3.25;;
37379;SDS011;23252;-33.992;18.480;2023-07-31T06:32:54;19.98;;;3.28;;
37379;SDS011;23252;-33.992;18.480;2023-07-31T06:35:20;25.08;;;3.53;;
37379;SDS011;23252;-33.992;18.480;2023-07-31T06:37:46;18.65;;;3.67;;
37379;SDS011;23252;-33.992;18.480;2023-07-31T06:40:13;15.63;;;3.07;;
37379;SDS011;23252;-33.992;18.480;2023-07-31T06:42:40;22.75;;;3.63;;
37379;SDS011;23252;-33.992;18.480;2023-07-31T06:45:06;10.25;;;2.55;;
37379;SDS011;23252;-33.992;18.480;2023-07-31T06:47:33;13.88;;;2.85;;
37379;SDS011;23252;-33.992;18.480;2023-07-31T06:50:00;17.02;;;2.75;;
37379;SDS011;23252;-33.992;18.480;2023-07-31T06:52:26;13.80;;;3.47;;
37379;SDS011;23252;-33.992;18.480;2023-07-31T06:55:02;21.37;;;3.73;;
37379;SDS011;23252;-33.992;18.480;2023-07-31T06:57:42;14.25;;;3.47;;
37379;SDS011;23252;-33.992;18.480;2023-07-31T07:00:09;15.77;;;3.15;;
37379;SDS011;23252;-33.992;18.480;2023-07-31T07:02:36;15.68;;;2.78;;
37379;SDS011;23252;-33.992;18.480;2023-07-31T07:05:02;20.08;;;3.08;;
37379;SDS011;23252;-33.992;18.480;2023-07-31T07:07:29;15.73;;;3.00;;
37379;SDS011;23252;-33.992;18.480;2023-07-31T07:09:56;12.93;;;2.53;;
37379;SDS011;23252;-33.992;18.480;2023-07-31T07:12:24;21.55;;;4.20;;
37379;SDS011;23252;-33.992;18.480;2023-07-31T07:14:51;16.10;;;3.05;;
37379;SDS011;23252;-33.992;18.480;2023-07-31T07:17:21;15.68;;;2.95;;
37379;SDS011;23252;-33.992;18.480;2023-07-31T07:19:48;17.08;;;3.50;;
37379;SDS011;23252;-33.992;18.480;2023-07-31T07:22:14;14.13;;;3.58;;
37379;SDS011;23252;-33.992;18.480;2023-07-31T07:24:41;25.45;;;3.65;;
37379;SDS011;23252;-33.992;18.480;2023-07-31T07:27:07;20.38;;;3.53;;
37379;SDS011;23252;-33.992;18.480;2023-07-31T07:29:34;14.02;;;3.13;;
37379;SDS011;23252;-33.992;18.480;2023-07-31T07:32:01;19.58;;;3.50;;
37379;SDS011;23252;-33.992;18.480;2023-07-31T07:34:27;20.20;;;2.90;;
37379;SDS011;23252;-33.992;18.480;2023-07-31T07:36:54;25.77;;;3.97;;
37379;SDS011;23252;-33.992;18.480;2023-07-31T07:39:21;13.52;;;2.88;;
37379;SDS011;23252;-33.992;18.480;2023-07-31T07:41:47;15.87;;;2.70;;
37379;SDS011;23252;-33.992;18.480;2023-07-31T07:44:14;17.80;;;2.92;;
37379;SDS011;23252;-33.992;18.480;2023-07-31T07:46:41;19.30;;;3.50;;
37379;SDS011;23252;-33.992;18.480;2023-07-31T07:49:07;21.47;;;3.60;;
37379;SDS011;23252;-33.992;18.480;2023-07-31T07:51:34;20.13;;;3.70;;
37379;SDS011;23252;-33.992;18.480;2023-07-31T07:54:00;23.63;;;4.23;;
37379;SDS011;23252;-33.992;18.480;2023-07-31T07:56:27;12.65;;;3.63;;
37379;SDS011;23252;-33.992;18.480;2023-07-31T07:58:54;20.85;;;3.25;;
37379;SDS011;23252;-33.992;18.480;2023-07-31T08:01:20;20.05;;;3.75;;
37379;SDS011;23252;-33.992;18.480;2023-07-31T08:03:47;26.65;;;4.22;;
37379;SDS011;23252;-33.992;18.480;2023-07-31T08:06:14;20.13;;;3.50;;
37379;SDS011;23252;-33.992;18.480;2023-07-31T08:08:40;15.07;;;3.70;;
37379;SDS011;23252;-33.992;18.480;2023-07-31T08:11:07;15.25;;;4.07;;
37379;SDS011;23252;-33.992;18.480;2023-07-31T08:13:34;17.88;;;3.85;;
37379;SDS011;23252;-33.992;18.480;2023-07-31T08:16:02;23.73;;;4.13;;
37379;SDS011;23252;-33.992;18.480;2023-07-31T08:18:30;18.50;;;3.25;;
37379;SDS011;23252;-33.992;18.480;2023-07-31T08:21:01;17.67;;;4.18;;
37379;SDS011;23252;-33.992;18.480;2023-07-31T08:23:28;11.82;;;2.83;;
37379;SDS011;23252;-33.992;18.480;2023-07-31T08:25:54;12.57;;;2.67;;
37379;SDS011;23252;-33.992;18.480;2023-07-31T08:28:21;17.58;;;3.63;;
37379;SDS011;23252;-33.992;18.480;2023-07-31T08:30:47;11.85;;;2.95;;
37379;SDS011;23252;-33.992;18.480;2023-07-31T08:33:15;14.63;;;3.20;;
37379;SDS011;23252;-33.992;18.480;2023-07-31T08:35:42;15.82;;;3.47;;
37379;SDS011;23252;-33.992;18.480;2023-07-31T08:38:08;15.13;;;3.93;;
37379;SDS011;23252;-33.992;18.480;2023-07-31T08:40:38;15.77;;;3.90;;
37379;SDS011;23252;-33.992;18.480;2023-07-31T08:43:04;15.65;;;3.90;;
37379;SDS011;23252;-33.992;18.480;2023-07-31T08:45:31;12.30;;;3.10;;
37379;SDS011;23252;-33.992;18.480;2023-07-31T08:47:59;17.42;;;3.65;;
37379;SDS011;23252;-33.992;18.480;2023-07-31T08:50:26;15.68;;;3.63;;
37379;SDS011;23252;-33.992;18.480;2023-07-31T08:52:53;14.18;;;3.83;;
37379;SDS011;23252;-33.992;18.480;2023-07-31T08:55:19;14.18;;;3.47;;
37379;SDS011;23252;-33.992;18.480;2023-07-31T08:57:50;9.40;;;2.65;;
37379;SDS011;23252;-33.992;18.480;2023-07-31T09:00:18;19.48;;;3.20;;
37379;SDS011;23252;-33.992;18.480;2023-07-31T09:05:23;12.35;;;3.20;;
37379;SDS011;23252;-33.992;18.480;2023-07-31T09:07:50;14.23;;;3.00;;
37379;SDS011;23252;-33.992;18.480;2023-07-31T09:10:17;16.65;;;3.63;;
37379;SDS011;23252;-33.992;18.480;2023-07-31T09:12:44;19.27;;;3.40;;
37379;SDS011;23252;-33.992;18.480;2023-07-31T09:15:11;15.98;;;2.88;;
37379;SDS011;23252;-33.992;18.480;2023-07-31T09:17:37;16.30;;;2.40;;
37379;SDS011;23252;-33.992;18.480;2023-07-31T09:20:22;12.33;;;2.70;;
37379;SDS011;23252;-33.992;18.480;2023-07-31T09:22:48;17.85;;;3.30;;
37379;SDS011;23252;-33.992;18.480;2023-07-31T09:30:23;15.43;;;3.10;;
37379;SDS011;23252;-33.992;18.480;2023-07-31T09:32:50;14.30;;;2.92;;
37379;SDS011;23252;-33.992;18.480;2023-07-31T09:35:29;14.63;;;2.50;;
37379;SDS011;23252;-33.992;18.480;2023-07-31T09:37:57;24.00;;;3.13;;
37379;SDS011;23252;-33.992;18.480;2023-07-31T09:40:28;14.38;;;2.13;;
37379;SDS011;23252;-33.992;18.480;2023-07-31T09:43:00;11.38;;;2.70;;
37379;SDS011;23252;-33.992;18.480;2023-07-31T09:45:28;19.35;;;2.80;;
37379;SDS011;23252;-33.992;18.480;2023-07-31T09:47:55;18.83;;;2.45;;
37379;SDS011;23252;-33.992;18.480;2023-07-31T09:50:23;18.40;;;2.65;;
37379;SDS011;23252;-33.992;18.480;2023-07-31T09:52:50;17.77;;;2.47;;
37379;SDS011;23252;-33.992;18.480;2023-07-31T09:57:48;17.08;;;3.17;;
37379;SDS011;23252;-33.992;18.480;2023-07-31T10:00:16;13.68;;;2.17;;
37379;SDS011;23252;-33.992;18.480;2023-07-31T10:02:47;9.50;;;2.17;;
37379;SDS011;23252;-33.992;18.480;2023-07-31T10:05:14;10.90;;;2.10;;
37379;SDS011;23252;-33.992;18.480;2023-07-31T10:08:02;7.65;;;1.90;;
37379;SDS011;23252;-33.992;18.480;2023-07-31T10:10:28;9.70;;;2.25;;
37379;SDS011;23252;-33.992;18.480;2023-07-31T10:12:59;7.95;;;2.15;;
37379;SDS011;23252;-33.992;18.480;2023-07-31T10:15:26;17.15;;;3.00;;
37379;SDS011;23252;-33.992;18.480;2023-07-31T10:17:54;6.28;;;2.10;;
37379;SDS011;23252;-33.992;18.480;2023-07-31T10:20:21;9.75;;;2.15;;
37379;SDS011;23252;-33.992;18.480;2023-07-31T10:22:48;9.95;;;2.30;;
37379;SDS011;23252;-33.992;18.480;2023-07-31T10:25:15;16.13;;;2.78;;
37379;SDS011;23252;-33.992;18.480;2023-07-31T10:27:43;13.73;;;3.15;;
37379;SDS011;23252;-33.992;18.480;2023-07-31T10:30:14;13.32;;;2.53;;
37379;SDS011;23252;-33.992;18.480;2023-07-31T10:32:43;10.85;;;2.40;;
37379;SDS011;23252;-33.992;18.480;2023-07-31T10:35:10;17.63;;;2.80;;
37379;SDS011;23252;-33.992;18.480;2023-07-31T10:37:38;14.18;;;2.80;;
37379;SDS011;23252;-33.992;18.480;2023-07-31T10:42:53;10.73;;;2.80;;
37379;SDS011;23252;-33.992;18.480;2023-07-31T10:45:36;7.43;;;2.60;;
37379;SDS011;23252;-33.992;18.480;2023-07-31T10:48:04;10.45;;;2.55;;
37379;SDS011;23252;-33.992;18.480;2023-07-31T10:53:24;10.65;;;2.60;;
37379;SDS011;23252;-33.992;18.480;2023-07-31T10:56:00;17.48;;;3.50;;
37379;SDS011;23252;-33.992;18.480;2023-07-31T10:58:34;8.88;;;2.50;;
37379;SDS011;23252;-33.992;18.480;2023-07-31T11:01:03;16.13;;;3.08;;
37379;SDS011;23252;-33.992;18.480;2023-07-31T11:03:43;8.77;;;3.05;;
37379;SDS011;23252;-33.992;18.480;2023-07-31T11:06:15;10.27;;;2.90;;
37379;SDS011;23252;-33.992;18.480;2023-07-31T11:08:45;13.73;;;3.58;;
37379;SDS011;23252;-33.992;18.480;2023-07-31T11:11:14;7.13;;;2.80;;
37379;SDS011;23252;-33.992;18.480;2023-07-31T11:13:46;9.82;;;2.92;;
37379;SDS011;23252;-33.992;18.480;2023-07-31T11:16:20;11.40;;;3.00;;
37379;SDS011;23252;-33.992;18.480;2023-07-31T11:18:51;10.77;;;2.97;;
37379;SDS011;23252;-33.992;18.480;2023-07-31T11:21:20;10.10;;;3.13;;
37379;SDS011;23252;-33.992;18.480;2023-07-31T11:23:49;9.77;;;2.60;;
37379;SDS011;23252;-33.992;18.480;2023-07-31T11:26:17;12.15;;;3.20;;
37379;SDS011;23252;-33.992;18.480;2023-07-31T11:28:45;11.15;;;3.67;;
37379;SDS011;23252;-33.992;18.480;2023-07-31T11:31:13;12.45;;;3.63;;
37379;SDS011;23252;-33.992;18.480;2023-07-31T11:33:39;12.03;;;3.70;;
37379;SDS011;23252;-33.992;18.480;2023-07-31T11:36:06;11.17;;;3.97;;
37379;SDS011;23252;-33.992;18.480;2023-07-31T11:38:43;10.52;;;3.70;;
37379;SDS011;23252;-33.992;18.480;2023-07-31T11:41:10;12.70;;;3.65;;
37379;SDS011;23252;-33.992;18.480;2023-07-31T11:43:41;11.68;;;3.67;;
37379;SDS011;23252;-33.992;18.480;2023-07-31T11:46:08;11.33;;;3.53;;
37379;SDS011;23252;-33.992;18.480;2023-07-31T11:48:35;13.35;;;3.95;;
37379;SDS011;23252;-33.992;18.480;2023-07-31T11:51:04;10.82;;;3.60;;
37379;SDS011;23252;-33.992;18.480;2023-07-31T11:53:41;15.60;;;3.85;;
37379;SDS011;23252;-33.992;18.480;2023-07-31T11:56:18;11.23;;;3.50;;
37379;SDS011;23252;-33.992;18.480;2023-07-31T11:58:50;10.02;;;4.40;;
37379;SDS011;23252;-33.992;18.480;2023-07-31T14:17:12;15.85;;;4.22;;
37379;SDS011;23252;-33.992;18.480;2023-07-31T14:19:39;8.30;;;3.60;;
37379;SDS011;23252;-33.992;18.480;2023-07-31T14:22:06;15.98;;;3.67;;
37379;SDS011;23252;-33.992;18.480;2023-07-31T14:24:33;15.20;;;3.75;;
37379;SDS011;23252;-33.992;18.480;2023-07-31T14:26:59;13.27;;;4.13;;
37379;SDS011;23252;-33.992;18.480;2023-07-31T14:29:26;16.67;;;4.30;;
37379;SDS011;23252;-33.992;18.480;2023-07-31T14:31:53;8.23;;;3.30;;
37379;SDS011;23252;-33.992;18.480;2023-07-31T14:34:19;10.67;;;3.17;;
37379;SDS011;23252;-33.992;18.480;2023-07-31T14:36:45;16.90;;;4.77;;
37379;SDS011;23252;-33.992;18.480;2023-07-31T14:39:12;15.98;;;3.58;;
37379;SDS011;23252;-33.992;18.480;2023-07-31T14:41:39;10.82;;;3.45;;
37379;SDS011;23252;-33.992;18.480;2023-07-31T14:44:05;10.80;;;3.43;;
37379;SDS011;23252;-33.992;18.480;2023-07-31T14:46:32;12.82;;;4.40;;
37379;SDS011;23252;-33.992;18.480;2023-07-31T14:48:58;19.20;;;5.17;;
37379;SDS011;23252;-33.992;18.480;2023-07-31T14:51:25;10.65;;;4.07;;
37379;SDS011;23252;-33.992;18.480;2023-07-31T14:53:51;11.63;;;3.97;;
37379;SDS011;23252;-33.992;18.480;2023-07-31T14:56:18;9.53;;;3.60;;
37379;SDS011;23252;-33.992;18.480;2023-07-31T14:58:44;14.82;;;3.70;;
37379;SDS011;23252;-33.992;18.480;2023-07-31T15:01:11;12.03;;;4.00;;
37379;SDS011;23252;-33.992;18.480;2023-07-31T15:03:37;12.33;;;4.03;;
37379;SDS011;23252;-33.992;18.480;2023-07-31T15:06:04;16.35;;;4.35;;
37379;SDS011;23252;-33.992;18.480;2023-07-31T15:08:33;10.85;;;4.30;;
37379;SDS011;23252;-33.992;18.480;2023-07-31T15:10:59;14.97;;;4.20;;
37379;SDS011;23252;-33.992;18.480;2023-07-31T15:13:25;17.08;;;4.60;;
37379;SDS011;23252;-33.992;18.480;2023-07-31T15:15:52;15.63;;;4.68;;
37379;SDS011;23252;-33.992;18.480;2023-07-31T15:18:20;19.88;;;4.97;;
37379;SDS011;23252;-33.992;18.480;2023-07-31T15:20:47;13.02;;;3.95;;
37379;SDS011;23252;-33.992;18.480;2023-07-31T15:23:13;12.45;;;3.42;;
37379;SDS011;23252;-33.992;18.480;2023-07-31T15:25:40;13.83;;;3.23;;
37379;SDS011;23252;-33.992;18.480;2023-07-31T15:30:35;12.68;;;4.05;;
37379;SDS011;23252;-33.992;18.480;2023-07-31T15:33:02;16.92;;;4.72;;
37379;SDS011;23252;-33.992;18.480;2023-07-31T15:35:29;20.88;;;5.18;;
37379;SDS011;23252;-33.992;18.480;2023-07-31T15:37:55;11.95;;;3.30;;
37379;SDS011;23252;-33.992;18.480;2023-07-31T15:40:22;16.40;;;4.25;;
37379;SDS011;23252;-33.992;18.480;2023-07-31T15:42:48;19.35;;;5.30;;
37379;SDS011;23252;-33.992;18.480;2023-07-31T15:45:15;14.43;;;4.07;;
37379;SDS011;23252;-33.992;18.480;2023-07-31T15:47:41;19.13;;;5.43;;
37379;SDS011;23252;-33.992;18.480;2023-07-31T15:50:08;14.60;;;4.95;;
37379;SDS011;23252;-33.992;18.480;2023-07-31T15:52:35;18.63;;;5.28;;
37379;SDS011;23252;-33.992;18.480;2023-07-31T15:55:02;15.07;;;5.10;;
37379;SDS011;23252;-33.992;18.480;2023-07-31T15:57:28;23.45;;;5.90;;
37379;SDS011;23252;-33.992;18.480;2023-07-31T15:59:55;18.58;;;5.78;;
37379;SDS011;23252;-33.992;18.480;2023-07-31T16:02:21;22.50;;;5.70;;
37379;SDS011;23252;-33.992;18.480;2023-07-31T16:04:48;24.10;;;7.00;;
37379;SDS011;23252;-33.992;18.480;2023-07-31T16:07:14;21.92;;;6.10;;
37379;SDS011;23252;-33.992;18.480;2023-07-31T16:09:41;23.93;;;7.10;;
37379;SDS011;23252;-33.992;18.480;2023-07-31T16:12:07;21.67;;;5.63;;
37379;SDS011;23252;-33.992;18.480;2023-07-31T16:14:36;16.65;;;5.05;;
37379;SDS011;23252;-33.992;18.480;2023-07-31T16:17:02;16.25;;;5.55;;
37379;SDS011;23252;-33.992;18.480;2023-07-31T16:19:29;19.17;;;5.95;;
37379;SDS011;23252;-33.992;18.480;2023-07-31T16:21:56;21.00;;;5.85;;
37379;SDS011;23252;-33.992;18.480;2023-07-31T16:24:23;17.58;;;5.95;;
37379;SDS011;23252;-33.992;18.480;2023-07-31T16:26:49;22.60;;;6.20;;
37379;SDS011;23252;-33.992;18.480;2023-07-31T16:29:16;20.70;;;6.57;;
37379;SDS011;23252;-33.992;18.480;2023-07-31T16:31:42;18.20;;;5.97;;
37379;SDS011;23252;-33.992;18.480;2023-07-31T16:34:09;19.83;;;6.65;;
37379;SDS011;23252;-33.992;18.480;2023-07-31T16:36:35;20.98;;;7.47;;
37379;SDS011;23252;-33.992;18.480;2023-07-31T16:39:02;25.60;;;7.90;;
37379;SDS011;23252;-33.992;18.480;2023-07-31T16:41:28;28.73;;;8.38;;
37379;SDS011;23252;-33.992;18.480;2023-07-31T16:43:55;24.35;;;10.98;;
37379;SDS011;23252;-33.992;18.480;2023-07-31T16:46:21;22.35;;;10.10;;
37379;SDS011;23252;-33.992;18.480;2023-07-31T16:48:48;31.13;;;15.27;;
37379;SDS011;23252;-33.992;18.480;2023-07-31T16:51:14;34.83;;;18.67;;
37379;SDS011;23252;-33.992;18.480;2023-07-31T16:53:41;32.10;;;15.30;;
37379;SDS011;23252;-33.992;18.480;2023-07-31T16:56:09;23.17;;;9.75;;
37379;SDS011;23252;-33.992;18.480;2023-07-31T16:58:35;23.30;;;7.90;;
37379;SDS011;23252;-33.992;18.480;2023-07-31T17:01:02;22.63;;;7.33;;